Time;durP1;ratioP1;P1;durP2;ratioP2;P2;SDS_P1;SDS_P2;PMS_P1;PMS_P2;Temp;Humidity;BMP_temperature;BMP_pressure;BME280_temperature;BME280_humidity;BME280_pressure;Samples;Min_cycle;Max_cycle;Signal;HPM_P1;HPM_P2
2022/04/01 00:02:11;;;;;;;;;3.50;2.00;;;;;4.94;54.62;100218.19;5059980;28;45354;-47
2022/04/01 00:04:39;;;;;;;;;1.25;1.00;;;;;4.94;53.84;100214.72;5059909;28;45467;-50
2022/04/01 00:07:04;;;;;;;;;1.00;1.00;;;;;4.95;54.40;100204.03;5060221;28;45470;-45
2022/04/01 00:09:30;;;;;;;;;2.50;1.00;;;;;4.99;53.55;100202.00;5059379;28;46084;-52
2022/04/01 00:11:55;;;;;;;;;5.00;1.00;;;;;5.09;54.41;100223.16;5059737;28;45305;-48
2022/04/01 00:14:20;;;;;;;;;0.00;0.00;;;;;5.07;54.13;100211.91;5041955;28;45413;-48
2022/04/01 00:16:46;;;;;;;;;4.75;0.75;;;;;5.11;53.41;100187.00;5060029;28;45235;-50
2022/04/01 00:19:12;;;;;;;;;3.00;1.00;;;;;5.04;54.07;100191.06;5059507;28;45954;-49
2022/04/01 00:21:38;;;;;;;;;1.00;0.00;;;;;5.00;54.15;100195.75;5059575;28;45287;-46
2022/04/01 00:24:04;;;;;;;;;0.50;0.00;;;;;4.86;54.45;100178.44;5059433;28;45226;-47
2022/04/01 00:26:29;;;;;;;;;1.50;1.50;;;;;4.91;53.70;100210.50;5060061;28;45373;-46
2022/04/01 00:28:54;;;;;;;;;2.50;0.00;;;;;4.88;54.47;100204.66;5058859;28;45360;-46
2022/04/01 00:31:20;;;;;;;;;1.00;1.00;;;;;4.86;53.64;100202.16;5059271;28;45209;-48
2022/04/01 00:33:45;;;;;;;;;0.75;0.75;;;;;4.85;54.37;100203.13;5059507;28;45289;-47
2022/04/01 00:36:11;;;;;;;;;0.50;0.50;;;;;4.87;54.49;100206.44;5059679;28;45233;-46
2022/04/01 00:38:36;;;;;;;;;1.25;1.25;;;;;4.88;54.24;100202.84;5059482;28;47239;-51
2022/04/01 00:41:02;;;;;;;;;3.50;2.00;;;;;4.94;53.63;100202.38;5059061;28;45384;-47
2022/04/01 00:43:34;;;;;;;;;0.00;0.00;;;;;5.00;53.71;100195.75;5059315;28;45365;-47
2022/04/01 00:45:59;;;;;;;;;7.00;1.75;;;;;5.05;54.10;100193.56;5059515;28;45468;-47
2022/04/01 00:48:26;;;;;;;;;4.50;1.00;;;;;5.03;53.87;100174.44;5058788;28;46253;-49
2022/04/01 00:50:52;;;;;;;;;1.00;0.00;;;;;5.10;53.85;100178.25;5058589;28;45962;-46
2022/04/01 00:53:18;;;;;;;;;1.00;1.00;;;;;5.07;53.84;100170.56;5059130;28;45345;-47
2022/04/01 00:55:46;;;;;;;;;3.00;3.00;;;;;5.05;53.95;100163.75;5059191;28;45274;-46
2022/04/01 00:58:11;;;;;;;;;2.00;1.00;;;;;5.06;53.97;100166.28;5059007;28;46200;-46
2022/04/01 01:00:38;;;;;;;;;2.50;0.50;;;;;5.09;53.63;100175.72;5058965;28;45361;-49
2022/04/01 01:03:04;;;;;;;;;0.00;0.00;;;;;5.12;53.43;100163.13;5059048;28;45290;-46
2022/04/01 01:05:30;;;;;;;;;0.00;0.00;;;;;5.15;54.34;100165.50;5059264;28;45241;-46
2022/04/01 01:07:57;;;;;;;;;1.00;1.00;;;;;5.15;53.89;100152.34;5058290;28;46086;-50
2022/04/01 01:10:23;;;;;;;;;2.25;1.75;;;;;4.98;53.68;100131.78;5058666;28;45471;-47
2022/04/01 01:12:48;;;;;;;;;0.75;0.75;;;;;5.03;53.99;100140.16;5058742;28;45333;-46
2022/04/01 01:15:18;;;;;;;;;1.50;0.75;;;;;4.99;54.06;100133.47;5058895;28;45830;-46
2022/04/01 01:17:44;;;;;;;;;2.00;0.50;;;;;5.03;53.55;100134.88;5058637;28;46122;-46
2022/04/01 01:20:17;;;;;;;;;0.00;0.00;;;;;5.00;54.45;100127.22;5058534;28;45330;-47
2022/04/01 01:22:44;;;;;;;;;0.00;0.00;;;;;4.96;54.19;100131.06;5058746;28;45365;-47
2022/04/01 01:25:12;;;;;;;;;0.00;0.00;;;;;4.97;54.17;100122.19;5058896;28;45375;-47
2022/04/01 01:27:38;;;;;;;;;1.00;1.00;;;;;4.98;54.54;100118.63;5058460;28;47334;-47
2022/04/01 01:30:05;;;;;;;;;2.00;0.00;;;;;5.01;54.87;100118.34;5058493;28;45436;-49
2022/04/01 01:32:32;;;;;;;;;1.00;1.00;;;;;5.03;54.73;100110.31;5057879;28;45265;-46
2022/04/01 01:34:58;;;;;;;;;1.00;0.25;;;;;5.03;54.41;100108.53;5058645;28;45350;-46
2022/04/01 01:37:24;;;;;;;;;1.00;1.00;;;;;4.96;55.27;100110.81;5058856;28;46525;-47
2022/04/01 01:39:49;;;;;;;;;5.00;0.50;;;;;4.96;55.02;100100.28;5059505;28;45674;-46
2022/04/01 01:42:15;;;;;;;;;4.00;1.00;;;;;5.00;54.83;100108.75;5059772;28;45379;-49
2022/04/01 01:44:41;;;;;;;;;0.25;0.25;;;;;5.01;55.00;100102.53;5059313;28;45228;-46
2022/04/01 01:47:07;;;;;;;;;0.00;0.00;;;;;5.04;54.58;100102.28;5058215;28;46086;-47
2022/04/01 01:49:33;;;;;;;;;0.75;0.00;;;;;5.06;55.86;100103.00;5058211;28;45416;-48
2022/04/01 01:54:45;;;;;;;;;4.75;1.00;;;;;5.13;56.09;100085.69;5058345;28;45209;-46
2022/04/01 01:57:16;;;;;;;;;1.50;1.00;;;;;5.01;56.18;100060.34;5057634;28;46201;-46
2022/04/01 01:59:43;;;;;;;;;2.00;0.00;;;;;5.15;57.12;100083.78;5058108;28;45432;-48
2022/04/01 02:02:09;;;;;;;;;0.75;0.75;;;;;5.10;57.31;100074.56;5058104;28;45339;-48
2022/04/01 02:04:36;;;;;;;;;1.25;0.00;;;;;5.10;56.82;100075.44;5056892;28;45595;-45
2022/04/01 02:07:04;;;;;;;;;1.50;0.75;;;;;5.09;56.92;100075.53;5057842;28;45463;-48
2022/04/01 02:09:30;;;;;;;;;0.00;0.00;;;;;5.09;56.94;100073.72;5058069;28;45234;-47
2022/04/01 02:11:55;;;;;;;;;1.00;1.00;;;;;5.08;57.37;100066.78;5057942;28;45214;-48
2022/04/01 02:14:21;;;;;;;;;0.00;0.00;;;;;5.08;56.64;100061.53;5058123;28;45262;-47
2022/04/01 02:16:46;;;;;;;;;2.00;0.00;;;;;5.10;56.81;100070.16;5057690;28;45361;-47
2022/04/01 02:19:12;;;;;;;;;1.00;1.00;;;;;5.10;55.89;100067.50;5057016;28;45507;-47
2022/04/01 02:21:38;;;;;;;;;1.00;0.25;;;;;5.10;57.28;100061.38;5057690;28;45449;-47
2022/04/01 02:24:06;;;;;;;;;0.00;0.00;;;;;5.09;57.70;100063.19;5058093;28;45254;-47
2022/04/01 02:26:32;;;;;;;;;1.00;1.00;;;;;5.07;58.58;100062.50;5057377;28;45406;-47
2022/04/01 02:28:59;;;;;;;;;2.00;0.75;;;;;5.06;58.95;100062.63;5057447;28;45296;-46
2022/04/01 02:31:25;;;;;;;;;0.75;0.50;;;;;5.04;58.33;100056.63;5057629;28;45352;-46
2022/04/01 02:33:51;;;;;;;;;4.00;1.00;;;;;5.03;58.40;100050.53;5057641;28;45492;-49
2022/04/01 02:36:17;;;;;;;;;4.25;1.00;;;;;5.01;58.35;100049.81;5057418;28;45329;-47
2022/04/01 02:38:43;;;;;;;;;5.00;1.00;;;;;4.97;59.79;100051.03;5057338;28;45373;-47
2022/04/01 02:41:11;;;;;;;;;0.00;0.00;;;;;4.95;58.82;100047.69;5057377;28;45376;-45
2022/04/01 02:43:37;;;;;;;;;3.50;1.25;;;;;4.90;59.69;100052.53;5056848;28;45233;-46
2022/04/01 02:46:05;;;;;;;;;1.50;1.50;;;;;4.84;60.25;100037.19;5057118;28;45936;-46
2022/04/01 02:48:31;;;;;;;;;5.00;0.00;;;;;4.87;60.91;100047.50;5057361;28;45392;-46
2022/04/01 02:50:57;;;;;;;;;1.25;1.25;;;;;4.89;59.83;100046.41;5057107;28;45430;-46
2022/04/01 02:53:23;;;;;;;;;1.50;1.00;;;;;4.84;60.54;100053.00;5057818;28;45424;-46
2022/04/01 02:55:50;;;;;;;;;1.00;1.00;;;;;4.79;61.13;100032.31;5057191;28;47112;-49
2022/04/01 02:58:15;;;;;;;;;0.00;0.00;;;;;4.78;60.66;100037.72;5057234;28;45345;-46
2022/04/01 03:00:41;;;;;;;;;1.25;1.25;;;;;4.69;61.11;100034.88;5057144;28;45421;-48
2022/04/01 03:03:07;;;;;;;;;1.00;1.00;;;;;4.74;61.77;100045.88;5057532;28;45313;-47
2022/04/01 03:05:34;;;;;;;;;0.00;0.00;;;;;4.70;61.20;100031.28;5057294;28;45410;-47
2022/04/01 03:08:00;;;;;;;;;1.75;1.00;;;;;4.67;61.54;100020.97;5056932;28;45281;-46
2022/04/01 03:10:26;;;;;;;;;5.00;1.25;;;;;4.66;62.32;100029.03;5038797;28;45487;-47
2022/04/01 03:12:52;;;;;;;;;0.50;0.50;;;;;4.64;62.02;100016.00;5057261;28;45579;-47
2022/04/01 03:15:17;;;;;;;;;0.00;0.00;;;;;4.62;62.82;100006.53;5056984;28;45821;-46
2022/04/01 03:17:43;;;;;;;;;1.00;1.00;;;;;4.59;62.43;100018.13;5056867;28;45319;-45
2022/04/01 03:20:13;;;;;;;;;0.25;0.00;;;;;4.57;61.96;100009.53;5057268;28;45427;-46
2022/04/01 03:22:45;;;;;;;;;1.75;0.75;;;;;4.52;61.89;99995.91;5057166;28;45334;-47
2022/04/01 03:25:15;;;;;;;;;1.75;0.25;;;;;4.48;62.60;100012.94;5056766;28;46311;-47
2022/04/01 03:27:40;;;;;;;;;1.00;1.00;;;;;4.29;62.04;99974.09;5056767;28;45433;-47
2022/04/01 03:30:09;;;;;;;;;1.50;0.50;;;;;4.44;62.68;100004.44;5058300;28;45281;-47
2022/04/01 03:32:37;;;;;;;;;2.00;0.75;;;;;4.45;63.10;100006.13;5060469;28;45535;-47
2022/04/01 03:35:07;;;;;;;;;0.00;0.00;;;;;4.47;62.84;100003.38;5042150;28;46706;-46
2022/04/01 03:37:33;;;;;;;;;1.75;1.75;;;;;4.49;62.63;100006.69;5060169;28;45345;-47
2022/04/01 03:40:00;;;;;;;;;0.00;0.00;;;;;4.43;63.05;100002.78;5060375;28;45331;-47
2022/04/01 03:42:32;;;;;;;;;0.00;0.00;;;;;4.45;63.09;99994.75;5060324;28;45394;-48
2022/04/01 03:45:06;;;;;;;;;2.50;1.00;;;;;4.44;63.22;100007.09;5059936;28;47232;-47
2022/04/01 03:47:41;;;;;;;;;1.00;1.00;;;;;4.47;63.96;100009.47;5059909;28;45485;-47
2022/04/01 03:50:10;;;;;;;;;2.00;0.75;;;;;4.50;63.71;99998.66;5059937;28;45399;-49
2022/04/01 03:52:36;;;;;;;;;1.00;0.00;;;;;4.48;64.11;99992.69;5060274;28;45393;-46
2022/04/01 03:55:05;;;;;;;;;0.75;0.75;;;;;4.49;63.69;99998.81;5059836;28;45647;-49
2022/04/01 03:57:35;;;;;;;;;1.00;1.00;;;;;4.47;64.19;100006.84;5059806;28;45551;-48
2022/04/01 04:00:02;;;;;;;;;0.75;0.75;;;;;4.49;64.01;100002.25;5060326;28;45410;-49
2022/04/01 04:02:32;;;;;;;;;2.50;1.00;;;;;4.53;64.51;99997.59;5060479;28;45439;-48
2022/04/01 04:05:00;;;;;;;;;2.00;1.00;;;;;4.57;64.19;100013.97;5060334;28;45450;-46
2022/04/01 04:07:26;;;;;;;;;0.00;0.00;;;;;4.54;63.00;100001.88;5059893;28;45433;-47
2022/04/01 04:09:53;;;;;;;;;0.00;0.00;;;;;4.52;64.07;99995.09;5060172;28;45430;-48
2022/04/01 04:12:22;;;;;;;;;0.00;0.00;;;;;4.54;63.30;100003.69;5060096;28;45406;-46
2022/04/01 04:14:52;;;;;;;;;1.00;1.00;;;;;4.55;63.13;99995.69;5059779;28;45619;-48
2022/04/01 04:17:30;;;;;;;;;0.25;0.25;;;;;4.49;63.97;99990.91;5060389;28;45478;-48
2022/04/01 04:20:08;;;;;;;;;1.25;1.00;;;;;4.51;64.03;99996.91;5060447;28;45226;-48
2022/04/01 04:22:51;;;;;;;;;0.00;0.00;;;;;4.47;64.14;99990.22;5060159;28;45421;-48
2022/04/01 04:25:21;;;;;;;;;0.25;0.25;;;;;4.54;62.62;100004.53;5059966;28;47148;-48
2022/04/01 04:27:55;;;;;;;;;1.00;1.00;;;;;4.51;63.88;99999.53;5059854;28;45216;-48
2022/04/01 04:30:30;;;;;;;;;3.50;0.75;;;;;4.47;63.09;99990.22;5059842;28;45446;-47
2022/04/01 04:33:04;;;;;;;;;1.00;0.00;;;;;4.39;62.94;99982.94;5059921;28;45421;-48
2022/04/01 04:35:30;;;;;;;;;1.00;1.00;;;;;4.50;63.58;100003.09;5059338;28;47158;-48
2022/04/01 04:37:57;;;;;;;;;1.00;1.00;;;;;4.46;63.36;99985.88;5059319;28;45496;-49
2022/04/01 04:40:23;;;;;;;;;0.00;0.00;;;;;4.51;63.39;99994.25;5059456;28;45475;-47
2022/04/01 04:42:49;;;;;;;;;1.00;1.00;;;;;4.54;63.23;99993.97;5059086;28;45240;-47
2022/04/01 04:45:19;;;;;;;;;1.00;1.00;;;;;4.56;63.80;99999.97;5060168;28;46115;-48
2022/04/01 04:47:46;;;;;;;;;3.00;1.00;;;;;4.60;63.42;100003.19;5060384;28;45348;-48
2022/04/01 04:50:12;;;;;;;;;2.00;1.00;;;;;4.55;63.03;100003.59;5059877;28;45373;-46
2022/04/01 04:52:41;;;;;;;;;1.00;1.00;;;;;4.58;63.82;100011.22;5060134;28;45289;-50
2022/04/01 04:55:09;;;;;;;;;0.75;0.75;;;;;4.55;63.44;100000.94;5059448;28;46214;-48
2022/04/01 04:57:35;;;;;;;;;1.00;1.00;;;;;4.49;62.53;99980.38;5059009;28;45491;-47
2022/04/01 05:00:01;;;;;;;;;2.50;1.25;;;;;4.51;62.79;99999.53;5059177;28;45332;-45
2022/04/01 05:02:57;;;;;;;;;2.00;2.00;;;;;4.63;63.18;100013.47;5059311;28;45463;-48
2022/04/01 05:05:37;;;;;;;;;1.00;1.00;;;;;4.62;63.49;100020.53;5058988;28;45405;-46
2022/04/01 05:08:17;;;;;;;;;1.00;1.00;;;;;4.66;62.69;100016.69;5058749;28;45373;-46
2022/04/01 05:10:59;;;;;;;;;1.00;1.00;;;;;4.68;63.47;100033.22;5058760;28;45428;-47
2022/04/01 05:13:49;;;;;;;;;0.75;0.75;;;;;4.67;63.32;100026.25;5058967;28;45694;-46
2022/04/01 05:16:48;;;;;;;;;1.00;1.00;;;;;4.68;62.71;100033.22;5058450;28;45438;-47
2022/04/01 05:19:26;;;;;;;;;1.00;1.00;;;;;4.71;62.72;100032.09;5058747;28;45333;-46
2022/04/01 05:22:00;;;;;;;;;4.00;1.00;;;;;4.70;62.17;100030.44;5058708;28;45336;-48
2022/04/01 05:24:32;;;;;;;;;2.00;2.00;;;;;4.70;62.05;100041.81;5058984;28;45381;-46
2022/04/01 05:27:02;;;;;;;;;3.00;1.00;;;;;4.67;61.56;100044.69;5058336;28;46065;-46
2022/04/01 05:29:36;;;;;;;;;4.00;1.75;;;;;4.70;61.36;100043.63;5058260;28;45425;-47
2022/04/01 05:32:07;;;;;;;;;1.00;1.00;;;;;4.69;60.90;100045.41;5058561;28;45423;-46
2022/04/01 05:34:47;;;;;;;;;1.00;1.00;;;;;4.68;60.45;100053.47;5058763;28;45441;-46
2022/04/01 05:37:15;;;;;;;;;4.25;2.00;;;;;4.67;61.25;100047.31;5058315;28;45499;-45
2022/04/01 05:39:46;;;;;;;;;2.00;2.00;;;;;4.66;61.14;100050.94;5058155;28;45463;-46
2022/04/01 05:42:13;;;;;;;;;1.00;1.00;;;;;4.66;60.27;100056.19;5058405;28;45388;-45
2022/04/01 05:44:41;;;;;;;;;4.00;1.50;;;;;4.68;60.45;100054.28;5058350;28;45199;-45
2022/04/01 05:47:07;;;;;;;;;2.00;1.75;;;;;4.66;61.32;100050.09;5057461;28;45401;-46
2022/04/01 05:49:38;;;;;;;;;2.00;2.00;;;;;4.70;60.64;100057.63;5057932;28;45735;-51
2022/04/01 05:52:04;;;;;;;;;1.50;1.00;;;;;4.70;60.75;100060.25;5058241;28;45311;-45
2022/04/01 05:54:31;;;;;;;;;1.00;1.00;;;;;4.71;61.25;100066.34;5057106;28;45385;-47
2022/04/01 05:56:58;;;;;;;;;2.50;2.00;;;;;4.71;60.75;100066.34;5058292;28;45365;-49
2022/04/01 05:59:24;;;;;;;;;0.75;0.75;;;;;4.71;61.02;100063.72;5057805;28;45672;-47
2022/04/01 06:02:20;;;;;;;;;2.00;2.00;;;;;4.70;60.84;100067.31;5058160;28;45406;-45
2022/04/01 06:05:04;;;;;;;;;2.75;2.00;;;;;4.70;61.21;100073.44;5059423;28;45384;-47
2022/04/01 06:07:44;;;;;;;;;4.75;4.00;;;;;4.69;61.41;100071.75;5059151;28;46188;-46
2022/04/01 06:10:31;;;;;;;;;4.75;1.75;;;;;4.75;61.66;100080.94;5041188;28;45571;-46
2022/04/01 06:13:01;;;;;;;;;6.50;2.50;;;;;4.76;61.95;100093.16;5058348;28;45393;-45
2022/04/01 06:15:27;;;;;;;;;4.50;2.00;;;;;4.79;62.34;100097.34;5057686;28;45442;-46
2022/04/01 06:18:13;;;;;;;;;0.75;0.75;;;;;4.77;62.21;100100.13;5056648;28;45258;-48
2022/04/01 06:20:41;;;;;;;;;2.00;2.00;;;;;4.77;62.64;100094.03;5057486;28;45536;-45
2022/04/01 06:23:16;;;;;;;;;3.00;1.00;;;;;4.75;63.03;100100.22;5057567;28;45228;-46
2022/04/01 06:25:52;;;;;;;;;2.00;2.00;;;;;4.74;62.86;100110.91;5057939;28;45423;-47
2022/04/01 06:28:24;;;;;;;;;2.50;2.50;;;;;4.70;63.40;100112.94;5057266;28;46397;-48
2022/04/01 06:30:52;;;;;;;;;5.00;4.75;;;;;4.66;63.59;100114.16;5057374;28;45318;-46
2022/04/01 06:33:36;;;;;;;;;5.25;4.25;;;;;4.63;63.28;100119.66;5057416;28;45396;-45
2022/04/01 06:36:06;;;;;;;;;5.00;5.00;;;;;4.62;63.46;100117.16;5057745;28;45543;-46
2022/04/01 06:38:49;;;;;;;;;8.00;5.00;;;;;4.60;63.73;100117.31;5057357;28;46426;-45
2022/04/01 06:41:21;;;;;;;;;4.00;4.00;;;;;4.61;64.42;100126.88;5057279;28;45390;-46
2022/04/01 06:43:48;;;;;;;;;4.00;4.00;;;;;4.60;64.27;100124.38;5057180;28;45242;-46
2022/04/01 06:46:14;;;;;;;;;13.75;5.00;;;;;4.58;64.12;100127.09;5057375;28;45302;-47
2022/04/01 06:48:40;;;;;;;;;5.00;5.00;;;;;4.43;63.70;100115.19;5037036;28;47290;-46
2022/04/01 06:51:08;;;;;;;;;4.75;1.00;;;;;4.51;63.67;100128.59;5052118;28;45516;-44
2022/04/01 06:53:39;;;;;;;;;7.25;6.00;;;;;4.53;64.09;100153.00;5055046;28;45408;-46
2022/04/01 06:56:04;;;;;;;;;6.00;6.00;;;;;4.51;63.75;100133.84;5053553;28;45698;-45
2022/04/01 06:58:30;;;;;;;;;8.00;7.00;;;;;4.47;64.80;100140.31;5054804;28;45860;-49
2022/04/01 07:00:56;;;;;;;;;4.75;4.25;;;;;4.31;64.11;100114.38;5054017;28;45509;-47
2022/04/01 07:03:22;;;;;;;;;9.00;8.00;;;;;4.49;64.30;100148.91;5054641;28;45429;-46
2022/04/01 07:05:47;;;;;;;;;9.50;6.50;;;;;4.32;64.47;100118.66;5055170;28;45381;-47
2022/04/01 07:08:15;;;;;;;;;10.00;8.00;;;;;4.55;64.53;100147.59;5054197;28;46451;-46
2022/04/01 07:10:40;;;;;;;;;9.50;7.50;;;;;4.56;64.55;100146.66;5054473;28;45317;-46
2022/04/01 07:13:06;;;;;;;;;10.00;7.50;;;;;4.60;64.05;100158.63;5054565;28;45946;-48
2022/04/01 07:15:31;;;;;;;;;10.00;4.00;;;;;4.60;64.96;100162.09;5054016;28;45381;-47
2022/04/01 07:17:57;;;;;;;;;3.25;3.00;;;;;4.59;64.73;100160.38;5054181;28;45920;-48
2022/04/01 07:20:22;;;;;;;;;7.25;7.25;;;;;4.58;64.39;100164.00;5054283;28;45360;-49
2022/04/01 07:22:49;;;;;;;;;6.00;5.00;;;;;4.58;64.13;100156.09;5054594;28;45748;-49
2022/04/01 07:25:14;;;;;;;;;10.75;7.75;;;;;4.50;64.12;100161.13;5054654;28;45480;-47
2022/04/01 07:27:40;;;;;;;;;8.00;8.00;;;;;4.45;64.22;100165.94;5053951;28;45326;-46
2022/04/01 07:30:08;;;;;;;;;12.00;5.00;;;;;4.44;65.28;100164.25;5053572;28;45416;-48
2022/04/01 07:32:35;;;;;;;;;8.00;8.00;;;;;4.41;65.20;100167.13;5053959;28;45438;-47
2022/04/01 07:35:08;;;;;;;;;11.50;7.50;;;;;4.38;65.10;100162.09;5054281;28;45414;-46
2022/04/01 07:37:33;;;;;;;;;14.50;10.50;;;;;4.38;65.02;100172.63;5053791;28;47244;-47
2022/04/01 07:39:59;;;;;;;;;10.50;9.00;;;;;4.35;64.97;100165.81;5053839;28;45531;-49
2022/04/01 07:42:26;;;;;;;;;17.50;11.00;;;;;4.28;65.90;100169.88;5054015;28;45563;-52
2022/04/01 07:44:52;;;;;;;;;10.25;10.00;;;;;4.21;64.10;100151.13;5053718;28;45506;-46
2022/04/01 07:47:18;;;;;;;;;13.00;8.00;;;;;4.36;65.46;100174.56;5054043;28;46388;-46
2022/04/01 07:49:48;;;;;;;;;14.00;10.75;;;;;4.34;64.91;100184.34;5053700;28;45493;-46
2022/04/01 07:52:15;;;;;;;;;13.75;13.00;;;;;4.33;65.27;100190.59;5053507;28;45485;-46
2022/04/01 07:54:42;;;;;;;;;13.00;12.75;;;;;4.33;65.21;100191.44;5053913;28;45444;-46
2022/04/01 07:57:10;;;;;;;;;16.75;13.00;;;;;4.35;65.92;100191.31;5053645;28;46457;-47
2022/04/01 07:59:36;;;;;;;;;13.25;10.50;;;;;4.40;65.70;100202.31;5053381;28;45436;-46
2022/04/01 08:02:04;;;;;;;;;10.00;6.75;;;;;4.40;65.25;100191.78;5053921;28;46048;-48
2022/04/01 08:04:30;;;;;;;;;9.25;8.00;;;;;4.29;65.59;100170.72;5053746;28;45430;-49
2022/04/01 08:06:57;;;;;;;;;10.00;7.00;;;;;4.45;66.30;100208.06;5053573;28;46079;-47
2022/04/01 08:09:26;;;;;;;;;11.00;7.75;;;;;4.47;66.17;100208.78;5053820;28;45417;-47
2022/04/01 08:11:55;;;;;;;;;9.00;7.25;;;;;4.50;65.26;100219.06;5053226;28;45697;-46
2022/04/01 08:14:21;;;;;;;;;10.25;7.00;;;;;4.49;65.38;100217.41;5053920;28;45924;-54
2022/04/01 08:16:47;;;;;;;;;10.00;7.25;;;;;4.50;64.68;100224.34;5054306;28;47224;-54
2022/04/01 08:19:14;;;;;;;;;10.75;10.75;;;;;4.49;64.95;100230.56;5056911;28;45530;-56
2022/04/01 08:21:40;;;;;;;;;8.25;7.25;;;;;4.50;65.48;100235.72;5056808;28;45610;-54
2022/04/01 08:24:07;;;;;;;;;10.00;7.25;;;;;4.49;64.61;100233.19;5056869;28;45472;-54
2022/04/01 08:26:33;;;;;;;;;9.00;6.50;;;;;4.51;64.77;100239.22;5056689;28;47318;-55
2022/04/01 08:28:59;;;;;;;;;11.25;9.50;;;;;4.49;64.90;100228.78;5056759;28;45881;-56
2022/04/01 08:31:25;;;;;;;;;10.00;8.25;;;;;4.52;64.26;100245.31;5056142;28;46432;-55
2022/04/01 08:33:50;;;;;;;;;5.00;5.00;;;;;4.44;65.19;100227.47;5056985;28;45443;-55
2022/04/01 08:36:17;;;;;;;;;8.00;8.00;;;;;4.51;64.41;100255.00;5053732;28;46279;-54
2022/04/01 08:38:43;;;;;;;;;8.50;7.00;;;;;4.50;64.86;100253.31;5055153;28;46293;-54
2022/04/01 08:41:09;;;;;;;;;13.50;7.50;;;;;4.49;65.55;100254.28;5056650;28;45878;-53
2022/04/01 08:43:37;;;;;;;;;9.25;8.25;;;;;4.48;64.37;100255.25;5056425;28;45523;-54
2022/04/01 08:46:06;;;;;;;;;9.50;6.50;;;;;4.47;64.25;100264.09;5055188;28;45521;-53
2022/04/01 08:48:32;;;;;;;;;9.75;7.00;;;;;4.43;65.13;100267.94;5056485;28;45557;-55
2022/04/01 08:50:58;;;;;;;;;12.50;7.75;;;;;4.41;64.82;100275.09;5056438;28;46158;-54
2022/04/01 08:53:24;;;;;;;;;4.25;4.25;;;;;4.40;65.40;100284.81;5056372;28;45543;-55
2022/04/01 08:55:51;;;;;;;;;8.50;6.50;;;;;4.37;65.58;100292.09;5056184;28;46104;-55
2022/04/01 08:58:21;;;;;;;;;14.75;9.00;;;;;4.34;65.17;100292.31;5056343;28;45542;-53
2022/04/01 09:00:47;;;;;;;;;8.75;7.50;;;;;4.34;66.02;100302.84;5055967;28;45381;-54
2022/04/01 09:03:15;;;;;;;;;14.50;11.00;;;;;4.32;64.76;100292.44;5056136;28;45559;-57
2022/04/01 09:05:46;;;;;;;;;13.75;10.75;;;;;4.30;65.00;100302.28;5055927;28;48138;-54
2022/04/01 09:08:15;;;;;;;;;15.00;11.00;;;;;4.30;64.78;100302.28;5056047;28;45448;-55
2022/04/01 09:10:52;;;;;;;;;10.00;7.00;;;;;4.30;65.16;100307.53;5055875;28;45471;-53
2022/04/01 09:13:18;;;;;;;;;14.25;10.75;;;;;4.35;65.59;100307.19;5056040;28;46413;-55
2022/04/01 09:15:44;;;;;;;;;8.25;4.25;;;;;4.40;65.19;100312.94;5055884;28;46451;-55
2022/04/01 09:18:10;;;;;;;;;13.75;10.50;;;;;4.33;64.68;100295.91;5056232;28;45521;-55
2022/04/01 09:20:50;;;;;;;;;13.75;13.75;;;;;4.49;64.90;100315.69;5056075;28;45550;-55
2022/04/01 09:23:23;;;;;;;;;11.00;10.00;;;;;4.50;65.06;100329.69;5056393;28;45541;-55
2022/04/01 09:25:50;;;;;;;;;15.25;10.25;;;;;4.54;64.62;100336.41;5055617;28;45491;-55
2022/04/01 09:28:30;;;;;;;;;11.00;7.50;;;;;4.49;64.25;100341.19;5055817;28;45499;-54
2022/04/01 09:31:10;;;;;;;;;15.00;8.50;;;;;4.46;63.83;100318.56;5055791;28;45674;-54
2022/04/01 09:33:46;;;;;;;;;11.00;11.00;;;;;4.46;64.43;100339.63;5056365;28;45222;-53
2022/04/01 09:36:17;;;;;;;;;13.25;13.00;;;;;4.50;63.68;100341.06;5056268;28;46134;-53
2022/04/01 09:39:12;;;;;;;;;13.75;12.00;;;;;4.51;64.15;100341.94;5056314;28;45454;-54
2022/04/01 09:41:46;;;;;;;;;12.75;10.75;;;;;4.57;63.78;100344.06;5056487;28;45458;-53
2022/04/01 09:44:11;;;;;;;;;14.00;13.00;;;;;4.57;63.04;100354.63;5056483;28;45625;-54
2022/04/01 09:46:44;;;;;;;;;19.75;13.75;;;;;4.58;63.37;100348.38;5056108;28;47188;-53
2022/04/01 09:49:12;;;;;;;;;17.75;17.75;;;;;4.61;63.84;100353.44;5055216;28;45409;-53
2022/04/01 09:51:42;;;;;;;;;15.00;13.00;;;;;4.64;63.39;100357.63;5055589;28;46348;-54
2022/04/01 09:54:07;;;;;;;;;10.25;8.00;;;;;4.21;63.71;100290.66;5056040;28;45501;-54
2022/04/01 09:56:41;;;;;;;;;17.00;13.00;;;;;4.76;63.52;100367.19;5055560;28;46158;-54
2022/04/01 09:59:08;;;;;;;;;10.00;10.00;;;;;4.80;62.63;100368.63;5055069;28;45495;-52
2022/04/01 10:01:35;;;;;;;;;12.25;10.75;;;;;4.82;62.58;100371.19;5055595;28;45434;-54
2022/04/01 10:04:01;;;;;;;;;14.00;10.75;;;;;4.84;63.60;100375.34;5055419;28;45507;-54
2022/04/01 10:06:28;;;;;;;;;13.50;11.50;;;;;4.92;62.94;100380.88;5055397;28;46944;-54
2022/04/01 10:08:56;;;;;;;;;8.50;7.25;;;;;4.92;63.43;100377.41;5057520;28;45483;-54
2022/04/01 10:11:25;;;;;;;;;13.25;11.50;;;;;4.95;63.06;100371.91;5057466;28;45333;-54
2022/04/01 10:13:52;;;;;;;;;13.50;10.00;;;;;4.97;62.36;100377.88;5057628;28;45357;-53
2022/04/01 10:16:19;;;;;;;;;14.50;10.75;;;;;5.00;62.99;100375.84;5056906;28;45385;-55
2022/04/01 10:18:47;;;;;;;;;14.25;13.00;;;;;5.05;62.73;100372.00;5057446;28;45765;-53
2022/04/01 10:21:16;;;;;;;;;15.25;11.75;;;;;5.05;62.34;100362.28;5057320;28;45334;-55
2022/04/01 10:23:48;;;;;;;;;15.00;11.50;;;;;5.12;62.83;100373.22;5057616;28;45250;-54
2022/04/01 10:26:18;;;;;;;;;17.25;13.50;;;;;5.20;62.07;100389.25;5057034;28;46104;-53
2022/04/01 10:28:50;;;;;;;;;16.00;11.75;;;;;5.17;62.55;100387.69;5057043;28;45378;-54
2022/04/01 10:31:18;;;;;;;;;18.75;10.75;;;;;5.16;62.32;100386.03;5057094;28;45405;-54
2022/04/01 10:33:44;;;;;;;;;20.50;15.00;;;;;5.21;61.92;100396.22;5057138;28;45456;-53
2022/04/01 10:36:22;;;;;;;;;20.00;12.50;;;;;5.24;62.68;100396.81;5057273;28;45432;-53
2022/04/01 10:38:49;;;;;;;;;16.50;11.25;;;;;5.23;62.19;100386.41;5057386;28;45436;-53
2022/04/01 10:41:15;;;;;;;;;11.50;11.50;;;;;5.27;61.96;100382.56;5057879;28;45337;-53
2022/04/01 10:43:44;;;;;;;;;17.75;14.50;;;;;5.31;62.78;100397.19;5058607;28;45405;-53
2022/04/01 10:46:19;;;;;;;;;16.50;14.50;;;;;5.26;61.52;100409.88;5057012;28;45439;-54
2022/04/01 10:52:11;;;;;;;;;13.00;12.00;;;;;5.14;61.13;100402.91;5057153;28;45348;-55
2022/04/01 10:54:47;;;;;;;;;15.00;11.00;;;;;5.24;61.57;100414.44;5057310;28;45420;-54
2022/04/01 10:57:37;;;;;;;;;12.75;12.75;;;;;5.35;61.16;100427.63;5057123;28;46241;-54
2022/04/01 11:00:12;;;;;;;;;15.50;12.50;;;;;5.41;61.04;100416.56;5057136;28;45375;-53
2022/04/01 11:02:38;;;;;;;;;15.75;12.00;;;;;5.39;60.69;100428.19;5056838;28;45528;-52
2022/04/01 11:05:25;;;;;;;;;14.00;13.25;;;;;5.37;61.28;100430.97;5057515;28;45428;-53
2022/04/01 11:08:20;;;;;;;;;12.00;10.00;;;;;5.32;61.02;100424.38;5056921;28;46149;-54
2022/04/01 11:11:12;;;;;;;;;16.00;11.50;;;;;5.33;60.91;100437.44;5056703;28;45332;-53
2022/04/01 11:13:38;;;;;;;;;14.25;14.25;;;;;5.29;61.57;100432.53;5056819;28;45254;-53
2022/04/01 11:16:25;;;;;;;;;14.50;14.00;;;;;5.28;62.02;100446.69;5057142;28;45412;-54
2022/04/01 11:19:13;;;;;;;;;10.50;10.50;;;;;5.22;61.88;100446.22;5056801;28;46320;-55
2022/04/01 11:21:39;;;;;;;;;19.75;13.50;;;;;5.20;61.94;100444.66;5056950;28;45212;-54
2022/04/01 11:24:23;;;;;;;;;17.50;13.50;;;;;5.16;61.30;100441.41;5056807;28;45795;-53
2022/04/01 11:26:49;;;;;;;;;8.75;7.75;;;;;5.07;61.47;100438.66;5057075;28;45445;-52
2022/04/01 11:29:23;;;;;;;;;8.25;7.75;;;;;5.07;61.09;100444.75;5055599;28;45307;-55
2022/04/01 11:32:00;;;;;;;;;8.00;8.00;;;;;5.10;61.41;100462.13;5056583;28;45403;-53
2022/04/01 11:34:26;;;;;;;;;12.50;8.25;;;;;5.07;60.92;100451.84;5056788;28;45443;-55
2022/04/01 11:37:00;;;;;;;;;11.50;10.75;;;;;5.10;61.14;100459.47;5056932;28;45270;-53
2022/04/01 11:39:26;;;;;;;;;18.50;13.75;;;;;5.13;60.94;100464.53;5038614;28;46975;-53
2022/04/01 11:41:54;;;;;;;;;13.50;11.25;;;;;5.14;60.48;100466.19;5056627;28;45419;-53
2022/04/01 11:44:19;;;;;;;;;18.25;10.00;;;;;5.21;60.53;100462.13;5057000;28;45439;-53
2022/04/01 11:46:52;;;;;;;;;11.50;9.50;;;;;5.06;60.51;100448.34;5056860;28;45306;-52